Weather observations for the past three days for
Jackson, McKellar-Sipes Regional Airport
Imperial (Metric)
Date Time (cdt) Wind (mph) Vis. (mi.) Weather Sky Cond. Temperature (ºF) Relative Humidity Wind Chill (°F) Heat Index (°F) Pressure Precipitation (in)
Air Dwpt 6 hour altimeter (in) sea level (mb) 1 hr 3 hr 6 hr
Max. Min.
09 09:53 W 7 10.00 Fair CLR 70 57.9 66% 29.87 1011.0
09 08:53 W 7 10.00 Fair CLR 68 57.9 70% 29.86 1010.8
09 07:53 W 8 10.00 Fair CLR 63 57 81% 29.85 1010.7
09 06:53 SW 7 10.00 Fair CLR 59 55 59 55.9 87% 29.85 1010.4
09 05:53 SW 12 10.00 Fair CLR 57 54 90% 29.81 1009.1
09 04:53 S 9 10.00 Fair CLR 57 53.1 87% 29.81 1009.1
09 03:53 SW 8 10.00 Fair CLR 57 53.1 87% 29.82 1009.4
09 02:53 S 8 10.00 Fair CLR 57.9 53.1 84% 29.81 1009.2
09 01:53 SW 8 10.00 Fair CLR 59 52 78% 29.83 1009.8
09 00:53 S 7 10.00 Fair CLR 57.9 52 73 57.9 81% 29.85 1010.5
08 23:53 SW 7 10.00 Fair CLR 57.9 51.1 78% 29.86 1011.0
08 22:53 S 9 10.00 Fair CLR 61 51.1 70% 29.86 1010.7
08 21:53 S 7 10.00 Fair CLR 62.1 51.1 67% 29.86 1011.0
08 20:53 S 8 10.00 Fair CLR 64.9 50 59% 29.86 1010.8
08 19:53 S 6 10.00 Fair CLR 66.9 50 55% 29.85 1010.8
08 18:53 S 8 10.00 Fair CLR 73 50 75.9 72 44% 29.84 0.0
08 17:53 S 7 10.00 Fair CLR 75 48.9 40% 77 29.85 1010.8
08 16:53 S 10 G 18 10.00 Fair CLR 75.9 48 37% 78 29.87 1011.1
08 15:53 S 12 10.00 Fair CLR 75.9 50 40% 78 29.87 0.0
08 14:53 SE 6 10.00 Fair CLR 73.9 46.9 38% 29.9 0.0
08 13:53 SW 10 G 17 10.00 Fair CLR 73 46.9 40% 29.93 1013.2
08 12:53 S 8 10.00 Fair CLR 72 46 72 41 40% 29.96 1014.2
08 11:53 Vrbl 7 10.00 Fair CLR 70 44.1 39% 30 1015.6
08 10:53 S 6 10.00 Fair CLR 68 44.1 42% 30.02 0.0
08 09:53 S 8 10.00 Fair CLR 66 45 47% 30.03 0.0
08 08:53 Vrbl 5 10.00 Fair CLR 62.1 46.9 58% 30.05 1017.3
08 07:53 Calm 10.00 Fair CLR 45 43 93% 30.05 1017.6
08 06:53 Calm 10.00 Fair CLR 0 0 0% 30.04 0.0
08 05:53 Calm 0.00 NULL NULL 43 39.9 89% 30.02 1016.6
08 04:53 Calm 0.00 NULL NULL 42.8 0 0% 30.01 0.0
08 01:53 Calm 0.00 NULL NULL 46.9 45 93% 30.02 1016.5
08 00:53 Calm 10.00 Fair CLR 48 46 93% 30.03 1016.8
07 23:53 Calm 10.00 NULL NULL 48 46 93% 30.03 1016.9
07 20:53 Calm 0.00 Fair CLR 52 46.9 83% 30.01 1016.2
07 19:53 Calm 10.00 Fair CLR 57 46.9 69% 30.01 1015.9
07 18:42 Calm 10.00 Fair CLR 0 0 0% 30 0.0
07 17:53 NW 7 0.00 NULL NULL 66.9 43 42% 29.99 1015.4
07 15:53 N 7 10.00 Fair CLR 69.1 42.1 38% 30 1015.6
07 13:53 Vrbl 6 10.00 A Few Clouds FEW050 66.9 43 42% 30.02 1016.3
07 13:41 Calm 10.00 Fair CLR 66.2 44.6 46% 30.02 0.0
07 12:53 N 8 10.00 Fair CLR 66.9 43 66.9 51.1 42% 30.03 1016.7
07 11:53 NE 9 10.00 Fair CLR 64.9 42.1 43% 30.05 1017.4
07 10:53 NE 12 10.00 Fair CLR 64 43 46% 30.06 1017.8
07 09:53 NE 9 10.00 Fair CLR 61 46.9 60% 30.06 1017.8
07 08:53 NE 9 10.00 Fair CLR 57.9 48 70% 30.06 1017.7
07 07:53 NE 8 10.00 Fair CLR 54 48 80% 30.04 1017.3
07 06:53 N 8 10.00 Fair CLR 51.1 46.9 54 48 86% 30.03 0.0
07 05:53 N 6 10.00 Fair CLR 48.9 46 90% 47 30.01 1016.2
07 04:53 N 5 10.00 Fair CLR 50 48 93% 49 30 1015.8
07 03:53 N 6 10.00 Fair CLR 50 48 93% 48 29.99 1015.5
07 02:53 N 5 10.00 Fair CLR 52 48.9 89% 30 1015.6
07 01:53 N 5 10.00 Overcast OVC080 54 51.1 90% 30 1015.7
07 00:53 N 7 10.00 Partly Cloudy SCT080 SCT110 54 51.1 55 53.1 90% 29.99 1015.5
06 23:53 N 3 10.00 Mostly Cloudy BKN110 54 51.1 90% 30 1015.8
06 22:53 Calm 10.00 Fair CLR 54 50 87% 30.01 1016.2
06 21:53 NE 6 10.00 Fair CLR 54 51.1 90% 29.99 1015.4
06 20:53 NE 6 10.00 A Few Clouds FEW120 54 52 93% 29.98 1015.1
06 19:53 N 7 10.00 Mostly Cloudy BKN120 54 52 93% 29.98 1015.0
06 17:53 NE 9 10.00 Mostly Cloudy SCT013 BKN021 55.9 51.1 84% 29.93 1013.5
06 16:53 N 10 9.00 Overcast FEW012 BKN019 OVC070 55.9 52 87% 29.96 1014.2 0.03
06 15:53 N 8 10.00 Light Rain OVC015 55.9 51.1 84% 29.97 1014.7 0.02 0.02
06 14:53 N 12 10.00 Overcast OVC014 57 51.1 81% 29.97 1014.7
06 13:53 N 12 10.00 Overcast OVC009 55.9 52 87% 29.97 1014.5
06 12:53 NE 5 10.00 Overcast OVC008 55 52 55 53.1 90% 29.96 1014.5 0.01 0.06
06 11:53 N 10 10.00 Overcast OVC005 53.1 51.1 93% 29.97 1014.6 0.01
06 10:53 N 10 3.00 Fog/Mist OVC003 53.1 51.1 93% 29.95 1013.9 0.04
Date Time (cdt) Wind (mph) Vis. (mi.) Weather Sky Cond. Air Dwpt Max. Min. Relative Humidity Wind Chill (°F) Heat Index (°F) altimeter (in) sea level (mb) 1 hr 3 hr 6 hr
6 hour
Temperature (ºF) Pressure Precipitation (in)